createdAt,value
2022-11-14T00:02:38.118Z,29.95
2022-11-14T00:05:23.896Z,30.40
2022-11-14T00:08:25.334Z,31.63
2022-11-14T00:11:10.486Z,31.10
2022-11-14T00:13:56.127Z,32.28
2022-11-14T00:16:41.535Z,32.45
2022-11-14T00:19:27.432Z,31.20
2022-11-14T00:22:12.858Z,32.83
2022-11-14T00:24:58.519Z,32.70
2022-11-14T00:27:43.741Z,30.70
2022-11-14T00:30:29.305Z,29.90
2022-11-14T00:33:20.153Z,32.28
2022-11-14T00:36:06.514Z,32.25
2022-11-14T00:38:55.336Z,31.80
2022-11-14T00:41:41.725Z,31.92
2022-11-14T00:44:27.075Z,32.17
2022-11-14T00:47:13.012Z,33.28
2022-11-14T00:49:58.336Z,31.48
2022-11-14T00:52:43.984Z,31.33
2022-11-14T00:55:29.083Z,23.27
2022-11-14T00:58:14.671Z,31.48
2022-11-14T01:00:59.989Z,33.05
2022-11-14T01:03:51.496Z,30.83
2022-11-14T01:06:37.042Z,30.92
2022-11-14T01:09:23.061Z,31.83
2022-11-14T01:12:08.780Z,29.90
2022-11-14T01:14:54.393Z,29.95
2022-11-14T01:17:39.790Z,27.33
2022-11-14T01:20:25.405Z,29.52
2022-11-14T01:23:12.178Z,28.98
2022-11-14T01:26:05.441Z,29.17
2022-11-14T01:28:50.785Z,28.88
2022-11-14T01:31:36.841Z,30.20
2022-11-14T01:34:23.173Z,29.80
2022-11-14T01:39:53.828Z,29.42
2022-11-14T01:42:39.511Z,32.60
2022-11-14T01:45:47.029Z,32.53
2022-11-14T01:48:47.261Z,32.80
2022-11-14T01:51:46.885Z,32.08
2022-11-14T01:54:41.217Z,30.75
2022-11-14T01:57:34.405Z,31.35
2022-11-14T02:00:19.798Z,31.27
2022-11-14T02:03:05.326Z,30.70
2022-11-14T02:05:51.973Z,30.55
2022-11-14T02:08:37.374Z,29.70
2022-11-14T02:11:23.087Z,29.15
2022-11-14T02:14:08.590Z,32.03
2022-11-14T02:17:22.317Z,31.23
2022-11-14T02:20:11.906Z,30.17
2022-11-14T02:22:57.611Z,30.70
2022-11-14T02:28:29.232Z,29.60
2022-11-14T02:31:15.638Z,32.33
2022-11-14T02:34:01.335Z,32.10
2022-11-14T02:36:46.506Z,32.33
2022-11-14T02:39:32.009Z,31.85
2022-11-14T02:42:17.359Z,31.65
2022-11-14T02:45:03.130Z,31.80
2022-11-14T02:47:48.494Z,29.10
2022-11-14T02:50:34.153Z,33.35
2022-11-14T02:53:19.805Z,33.08
2022-11-14T02:56:05.691Z,34.42
2022-11-14T02:58:51.764Z,33.83
2022-11-14T03:01:37.490Z,33.67
2022-11-14T03:04:22.820Z,34.95
2022-11-14T03:07:08.536Z,36.20
2022-11-14T03:09:53.990Z,32.33
2022-11-14T03:12:40.071Z,30.70
2022-11-14T03:15:25.635Z,32.60
2022-11-14T03:18:11.367Z,29.83
2022-11-14T03:20:57.019Z,34.42
2022-11-14T03:23:42.672Z,37.50
2022-11-14T03:26:28.139Z,36.35
2022-11-14T03:29:13.784Z,38.45
2022-11-14T03:31:59.238Z,35.05
2022-11-14T03:34:44.870Z,37.95
2022-11-14T03:37:30.442Z,35.35
2022-11-14T03:40:15.986Z,37.15
2022-11-14T03:43:01.130Z,33.75
2022-11-14T03:45:47.383Z,32.67
2022-11-14T03:48:33.224Z,34.47
2022-11-14T03:54:04.038Z,32.78
2022-11-14T03:56:49.367Z,33.95
2022-11-14T03:59:34.766Z,29.95
2022-11-14T04:02:20.342Z,29.08
2022-11-14T04:05:06.076Z,28.83
2022-11-14T04:07:51.982Z,30.95
2022-11-14T04:10:37.537Z,30.52
2022-11-14T04:13:22.731Z,29.30
2022-11-14T04:16:08.499Z,27.00
2022-11-14T04:18:53.870Z,25.98
2022-11-14T04:21:39.345Z,29.27
2022-11-14T04:24:24.926Z,26.45
2022-11-14T04:27:10.446Z,26.30
2022-11-14T04:29:55.998Z,25.92
2022-11-14T04:32:41.370Z,27.73
2022-11-14T04:35:26.901Z,25.80
2022-11-14T04:38:12.485Z,25.92
2022-11-14T04:40:57.879Z,26.65
2022-11-14T04:43:48.081Z,27.75
2022-11-14T04:46:36.015Z,26.98
2022-11-14T04:49:21.570Z,28.70
2022-11-14T04:52:07.474Z,26.42
2022-11-14T04:54:52.935Z,28.60
2022-11-14T04:57:38.407Z,28.42
2022-11-14T05:00:25.168Z,28.77
2022-11-14T05:03:11.136Z,27.75
2022-11-14T05:06:00.671Z,28.67
2022-11-14T05:08:46.315Z,29.48
2022-11-14T05:11:31.647Z,30.42
2022-11-14T05:14:17.189Z,30.98
2022-11-14T05:17:02.638Z,32.10
2022-11-14T05:19:48.335Z,34.60
2022-11-14T05:22:33.441Z,31.88
2022-11-14T05:25:18.957Z,31.15
2022-11-14T05:28:04.461Z,33.90
2022-11-14T05:30:50.136Z,33.10
2022-11-14T05:33:36.305Z,31.88
2022-11-14T05:36:21.994Z,33.90
2022-11-14T05:39:07.230Z,33.80
2022-11-14T05:41:52.744Z,38.53
2022-11-14T05:44:38.265Z,38.13
2022-11-14T05:47:23.662Z,39.63
2022-11-14T05:50:09.760Z,38.25
2022-11-14T05:52:56.579Z,37.80
2022-11-14T05:55:41.686Z,35.60
2022-11-14T05:58:27.790Z,35.58
2022-11-14T06:01:16.594Z,35.55
2022-11-14T06:04:05.419Z,36.10
2022-11-14T06:06:51.034Z,34.15
2022-11-14T06:09:36.709Z,36.75
2022-11-14T06:12:22.019Z,37.20
2022-11-14T06:15:08.059Z,35.55
2022-11-14T06:17:54.746Z,37.75
2022-11-14T06:20:39.916Z,39.97
2022-11-14T06:23:25.462Z,37.88
2022-11-14T06:26:21.610Z,39.10
2022-11-14T06:31:52.927Z,37.83
2022-11-14T06:34:38.419Z,37.42
2022-11-14T06:37:23.952Z,39.08
2022-11-14T06:40:09.861Z,38.45
2022-11-14T06:42:56.792Z,38.72
2022-11-14T06:45:42.089Z,38.50
2022-11-14T06:48:28.032Z,37.53
2022-11-14T06:51:15.528Z,36.88
2022-11-14T06:54:00.897Z,37.47
2022-11-14T06:56:46.529Z,36.58
2022-11-14T06:59:32.000Z,37.67
2022-11-14T07:02:21.694Z,36.78
2022-11-14T07:05:07.571Z,36.90
2022-11-14T07:10:38.343Z,38.00
2022-11-14T07:13:23.804Z,38.13
2022-11-14T07:16:09.452Z,40.88
2022-11-14T07:21:40.599Z,43.33
2022-11-14T07:24:26.139Z,46.00
2022-11-14T07:27:11.709Z,48.78
2022-11-14T07:29:57.285Z,48.00
2022-11-14T07:32:43.025Z,51.65
2022-11-14T07:35:28.299Z,48.53
2022-11-14T07:38:14.026Z,49.28
2022-11-14T07:41:01.556Z,49.17
2022-11-14T07:43:47.078Z,47.45
2022-11-14T07:46:32.364Z,47.95
2022-11-14T07:49:17.750Z,49.47
2022-11-14T07:52:03.269Z,51.03
2022-11-14T07:54:48.846Z,48.75
2022-11-14T07:57:38.922Z,47.83
2022-11-14T08:00:26.955Z,47.63
2022-11-14T08:03:12.343Z,48.45
2022-11-14T08:06:09.837Z,46.92
2022-11-14T08:08:55.375Z,48.50
2022-11-14T08:11:49.842Z,46.85
2022-11-14T08:14:35.704Z,48.72
2022-11-14T08:17:22.321Z,47.95
2022-11-14T08:20:09.144Z,46.85
2022-11-14T08:23:01.178Z,47.25
2022-11-14T08:25:46.481Z,44.35
2022-11-14T08:28:32.487Z,47.65
2022-11-14T08:31:18.168Z,47.70
2022-11-14T08:34:03.699Z,49.92
2022-11-14T08:36:49.760Z,49.10
2022-11-14T08:39:35.430Z,48.45
2022-11-14T08:42:21.119Z,52.50
2022-11-14T08:45:06.914Z,49.90
2022-11-14T08:47:53.455Z,50.45
2022-11-14T08:50:39.061Z,48.60
2022-11-14T08:53:24.848Z,48.20
2022-11-14T08:56:11.169Z,49.00
2022-11-14T08:58:56.571Z,48.35
2022-11-14T09:01:42.668Z,49.88
2022-11-14T09:04:28.747Z,47.40
2022-11-14T09:07:14.595Z,48.63
2022-11-14T09:10:00.175Z,47.90
2022-11-14T09:12:45.751Z,48.05
2022-11-14T09:15:31.279Z,49.30
2022-11-14T09:18:16.807Z,50.97
2022-11-14T09:21:07.593Z,50.45
2022-11-14T09:23:55.143Z,52.20
2022-11-14T09:26:44.482Z,52.03
2022-11-14T09:29:29.804Z,51.35
2022-11-14T09:32:15.350Z,51.67
2022-11-14T09:35:00.810Z,52.80
2022-11-14T09:37:46.347Z,53.92
2022-11-14T09:40:51.293Z,51.80
2022-11-14T09:43:39.072Z,51.13
2022-11-14T09:46:27.691Z,50.70
2022-11-14T09:49:30.573Z,50.63
2022-11-14T09:52:19.047Z,51.80
2022-11-14T09:55:10.663Z,50.00
2022-11-14T09:57:56.810Z,50.85
2022-11-14T10:01:09.718Z,50.38
2022-11-14T10:04:24.571Z,48.72
2022-11-14T10:07:41.919Z,49.67
2022-11-14T10:13:50.693Z,49.03
2022-11-14T10:16:42.125Z,46.95
2022-11-14T10:19:27.419Z,46.28
2022-11-14T10:22:51.547Z,48.60
2022-11-14T10:26:11.942Z,46.00
2022-11-14T10:29:45.208Z,45.20
2022-11-14T10:32:36.254Z,46.00
2022-11-14T10:35:42.457Z,46.63
2022-11-14T10:38:54.071Z,44.80
2022-11-14T10:41:56.582Z,43.22
2022-11-14T10:45:09.593Z,43.90
2022-11-14T10:48:01.274Z,44.20
2022-11-14T10:50:52.580Z,44.60
2022-11-14T10:53:46.767Z,45.55
2022-11-14T10:56:32.237Z,43.15
2022-11-14T10:59:18.205Z,42.08
2022-11-14T11:02:03.888Z,41.08
2022-11-14T11:04:49.033Z,41.33
2022-11-14T11:08:28.263Z,41.13
2022-11-14T11:11:31.355Z,39.25
2022-11-14T11:14:19.272Z,39.75
2022-11-14T11:17:19.694Z,36.92
2022-11-14T11:20:26.604Z,35.80
2022-11-14T11:23:11.831Z,35.38
2022-11-14T11:26:25.214Z,34.05
2022-11-14T11:29:10.350Z,31.48
2022-11-14T11:31:58.400Z,32.47
2022-11-14T11:34:43.806Z,31.73
2022-11-14T11:37:35.873Z,30.63
2022-11-14T11:40:28.550Z,28.52
2022-11-14T11:43:38.378Z,28.17
2022-11-14T11:46:50.356Z,25.80
2022-11-14T11:49:53.328Z,25.25
2022-11-14T11:52:50.057Z,24.85
2022-11-14T11:55:43.098Z,22.83
2022-11-14T11:58:46.170Z,22.88
2022-11-14T12:01:31.776Z,22.85
2022-11-14T12:04:17.783Z,22.33
2022-11-14T12:07:15.614Z,22.08
2022-11-14T12:10:12.540Z,22.23
2022-11-14T12:13:26.222Z,21.48
2022-11-14T12:16:25.522Z,22.15
2022-11-14T12:19:36.942Z,20.98
2022-11-14T12:23:00.117Z,20.58
2022-11-14T12:25:57.668Z,19.15
2022-11-14T12:28:43.103Z,20.13
2022-11-14T12:31:34.119Z,20.27
2022-11-14T12:34:31.333Z,19.58
2022-11-14T12:37:50.044Z,19.10
2022-11-14T12:40:41.369Z,19.10
2022-11-14T12:43:40.282Z,19.98
2022-11-14T12:46:26.114Z,20.75
2022-11-14T12:49:46.259Z,20.35
2022-11-14T12:52:40.716Z,20.40
2022-11-14T12:55:26.104Z,21.35
2022-11-14T12:58:13.946Z,20.83
2022-11-14T13:01:14.684Z,21.77
2022-11-14T13:04:15.446Z,21.23
2022-11-14T13:07:28.628Z,22.10
2022-11-14T13:10:33.254Z,22.30
2022-11-14T13:13:36.957Z,22.73
2022-11-14T13:16:43.972Z,21.50
2022-11-14T13:19:47.994Z,22.85
2022-11-14T13:22:44.964Z,21.92
2022-11-14T13:25:30.646Z,22.38
2022-11-14T13:28:38.272Z,22.35
2022-11-14T13:31:36.073Z,24.05
2022-11-14T13:34:43.553Z,22.30
2022-11-14T13:38:22.978Z,23.88
2022-11-14T13:41:47.611Z,24.05
2022-11-14T13:44:58.844Z,23.98
2022-11-14T13:48:12.274Z,24.30
2022-11-14T13:51:21.554Z,24.63
2022-11-14T13:54:18.199Z,25.23
2022-11-14T13:57:39.255Z,24.83
2022-11-14T14:00:25.890Z,26.08
2022-11-14T14:03:29.032Z,25.85
2022-11-14T14:06:29.739Z,24.88
2022-11-14T14:09:34.253Z,26.70
2022-11-14T14:12:39.104Z,27.48
2022-11-14T14:15:38.057Z,26.65
2022-11-14T14:18:26.212Z,25.63
2022-11-14T14:21:22.210Z,26.90
2022-11-14T14:25:05.346Z,26.33
2022-11-14T14:28:01.757Z,25.77
2022-11-14T14:31:11.944Z,25.65
2022-11-14T14:33:57.192Z,26.65
2022-11-14T14:36:54.055Z,27.88
2022-11-14T14:39:39.304Z,27.95
2022-11-14T14:42:29.551Z,28.27
2022-11-14T14:45:22.402Z,27.75
2022-11-14T14:48:14.501Z,28.10
2022-11-14T14:51:01.897Z,27.50
2022-11-14T14:53:53.512Z,27.63
2022-11-14T14:56:39.074Z,28.52
2022-11-14T14:59:25.765Z,29.10
2022-11-14T15:02:17.361Z,30.33
2022-11-14T15:05:03.615Z,29.35
2022-11-14T15:07:50.824Z,30.88
2022-11-14T15:10:36.937Z,30.10
2022-11-14T15:13:24.865Z,30.35
2022-11-14T15:16:11.510Z,31.25
2022-11-14T15:18:58.177Z,31.83
2022-11-14T15:21:44.087Z,30.48
2022-11-14T15:24:30.601Z,31.40
2022-11-14T15:27:18.634Z,32.10
2022-11-14T15:30:20.040Z,32.83
2022-11-14T15:33:25.609Z,31.88
2022-11-14T15:36:17.766Z,31.35
2022-11-14T15:39:29.101Z,33.00
2022-11-14T15:42:23.488Z,32.10
2022-11-14T15:45:26.983Z,32.92
2022-11-14T15:48:15.773Z,31.85
2022-11-14T15:51:00.989Z,31.30
2022-11-14T15:53:49.220Z,28.45
2022-11-14T15:56:34.588Z,30.70
2022-11-14T15:59:20.326Z,30.60
2022-11-14T16:02:46.418Z,32.03
2022-11-14T16:05:33.063Z,32.40
2022-11-14T16:08:18.342Z,33.40
2022-11-14T16:11:03.745Z,31.60
2022-11-14T16:13:49.390Z,34.58
2022-11-14T16:16:34.697Z,33.25
2022-11-14T16:19:21.978Z,31.63
2022-11-14T16:22:11.953Z,32.35
2022-11-14T16:25:00.455Z,31.88
2022-11-14T16:27:46.538Z,34.63
2022-11-14T16:30:32.064Z,35.78
2022-11-14T16:33:17.528Z,34.17
2022-11-14T16:36:03.123Z,34.95
2022-11-14T16:38:52.227Z,35.25
2022-11-14T16:41:38.537Z,35.83
2022-11-14T16:44:24.830Z,36.30
2022-11-14T16:47:14.458Z,35.97
2022-11-14T16:50:01.398Z,37.83
2022-11-14T16:52:47.182Z,37.47
2022-11-14T16:55:32.275Z,37.15
2022-11-14T16:58:18.019Z,37.38
2022-11-14T17:01:04.436Z,39.97
2022-11-14T17:03:51.230Z,41.30
2022-11-14T17:06:36.577Z,38.80
2022-11-14T17:09:22.039Z,38.05
2022-11-14T17:12:08.151Z,40.83
2022-11-14T17:14:54.720Z,39.33
2022-11-14T17:17:40.001Z,41.15
2022-11-14T17:20:25.641Z,43.97
2022-11-14T17:23:10.928Z,40.63
2022-11-14T17:26:05.106Z,41.97
2022-11-14T17:28:50.678Z,40.50
2022-11-14T17:31:38.379Z,39.33
2022-11-14T17:34:25.670Z,37.78
2022-11-14T17:37:11.068Z,38.72
2022-11-14T17:39:56.688Z,39.72
2022-11-14T17:42:41.887Z,41.80
2022-11-14T17:45:27.416Z,44.63
2022-11-14T17:48:13.254Z,44.35
2022-11-14T17:53:48.950Z,37.55
2022-11-14T17:56:34.170Z,40.60
2022-11-14T17:59:20.492Z,38.30
2022-11-14T18:02:05.671Z,39.55
2022-11-14T18:04:51.105Z,41.42
2022-11-14T18:07:36.587Z,44.35
2022-11-14T18:10:22.070Z,40.55
2022-11-14T18:13:08.129Z,47.13
2022-11-14T18:15:53.761Z,40.83
2022-11-14T18:18:39.346Z,40.03
2022-11-14T18:21:25.776Z,40.05
2022-11-14T18:24:13.878Z,40.65
2022-11-14T18:26:59.730Z,42.55
2022-11-14T18:29:45.688Z,39.92
2022-11-14T18:32:31.996Z,40.55
2022-11-14T18:35:17.776Z,41.60
2022-11-14T18:38:04.001Z,40.20
2022-11-14T18:40:55.837Z,40.78
2022-11-14T18:43:44.469Z,40.10
2022-11-14T18:46:36.899Z,39.20
2022-11-14T18:49:23.298Z,41.30
2022-11-14T18:52:12.867Z,39.40
2022-11-14T18:55:04.715Z,44.80
2022-11-14T18:57:50.375Z,44.95
2022-11-14T19:00:36.098Z,50.85
2022-11-14T19:03:21.477Z,42.38
2022-11-14T19:06:08.934Z,37.10
2022-11-14T19:09:02.740Z,38.85
2022-11-14T19:12:08.937Z,36.05
2022-11-14T19:14:56.399Z,38.38
2022-11-14T19:17:43.021Z,37.25
2022-11-14T19:20:28.163Z,37.22
2022-11-14T19:23:13.650Z,37.53
2022-11-14T19:26:00.717Z,44.33
2022-11-14T19:28:46.269Z,47.20
2022-11-14T19:31:33.104Z,42.20
2022-11-14T19:34:18.681Z,39.10
2022-11-14T19:37:04.107Z,40.05
2022-11-14T19:39:52.433Z,38.60
2022-11-14T19:42:38.146Z,37.08
2022-11-14T19:45:24.003Z,52.17
2022-11-14T19:48:09.353Z,44.88
2022-11-14T19:51:12.571Z,46.40
2022-11-14T19:53:59.456Z,40.65
2022-11-14T19:56:45.091Z,42.60
2022-11-14T19:59:30.557Z,39.10
2022-11-14T20:02:16.167Z,40.10
2022-11-14T20:05:01.370Z,91.95
2022-11-14T20:07:46.940Z,52.28
2022-11-14T20:10:47.409Z,40.17
2022-11-14T20:13:40.378Z,39.20
2022-11-14T20:16:28.232Z,37.92
2022-11-14T20:19:14.239Z,37.78
2022-11-14T20:21:59.701Z,37.92
2022-11-14T20:24:45.315Z,38.25
2022-11-14T20:27:30.904Z,36.60
2022-11-14T20:30:16.718Z,37.33
2022-11-14T20:33:02.097Z,37.30
2022-11-14T20:35:48.046Z,35.28
2022-11-14T20:38:33.382Z,34.72
2022-11-14T20:41:20.112Z,36.53
2022-11-14T20:44:05.695Z,36.03
2022-11-14T20:46:51.304Z,35.05
2022-11-14T20:49:36.617Z,36.60
2022-11-14T20:52:22.034Z,34.28
2022-11-14T20:55:11.751Z,35.75
2022-11-14T20:57:57.357Z,36.35
2022-11-14T21:00:42.922Z,36.42
2022-11-14T21:03:28.783Z,37.15
2022-11-14T21:06:16.337Z,35.55
2022-11-14T21:09:01.845Z,36.22
2022-11-14T21:11:47.296Z,36.65
2022-11-14T21:14:32.815Z,39.03
2022-11-14T21:17:19.042Z,38.38
2022-11-14T21:20:04.865Z,38.95
2022-11-14T21:22:50.554Z,42.97
2022-11-14T21:25:36.159Z,42.97
2022-11-14T21:28:21.779Z,41.92
2022-11-14T21:31:37.425Z,42.72
2022-11-14T21:34:22.923Z,42.47
2022-11-14T21:37:08.508Z,41.53
2022-11-14T21:39:53.907Z,41.15
2022-11-14T21:42:42.891Z,43.17
2022-11-14T21:45:28.177Z,42.78
2022-11-14T21:48:13.715Z,40.38
2022-11-14T21:51:08.082Z,40.60
2022-11-14T21:53:58.258Z,40.20
2022-11-14T21:56:43.828Z,40.00
2022-11-14T21:59:29.155Z,40.75
2022-11-14T22:02:33.138Z,42.88
2022-11-14T22:05:18.669Z,41.90
2022-11-14T22:08:04.218Z,41.80
2022-11-14T22:10:50.045Z,43.60
2022-11-14T22:13:35.329Z,44.78
2022-11-14T22:16:21.063Z,44.15
2022-11-14T22:21:52.966Z,44.22
2022-11-14T22:24:38.513Z,44.67
2022-11-14T22:27:24.208Z,45.63
2022-11-14T22:30:10.427Z,45.33
2022-11-14T22:32:55.720Z,45.90
2022-11-14T22:35:41.012Z,43.97
2022-11-14T22:38:29.616Z,43.78
2022-11-14T22:41:31.911Z,49.17
2022-11-14T22:44:18.117Z,45.10
2022-11-14T22:47:03.564Z,44.63
2022-11-14T22:49:49.155Z,46.25
2022-11-14T22:52:34.635Z,46.90
2022-11-14T22:55:20.141Z,43.42
2022-11-14T22:58:05.601Z,48.50
2022-11-14T23:00:51.958Z,45.58
2022-11-14T23:03:37.732Z,44.78
2022-11-14T23:06:24.322Z,45.40
2022-11-14T23:09:09.882Z,46.47
2022-11-14T23:11:55.481Z,45.05
2022-11-14T23:14:40.897Z,45.83
2022-11-14T23:17:26.479Z,45.88
2022-11-14T23:20:16.245Z,45.72
2022-11-14T23:23:02.343Z,47.55
2022-11-14T23:25:47.706Z,45.65
2022-11-14T23:28:33.504Z,49.42
2022-11-14T23:31:19.141Z,48.80
2022-11-14T23:34:06.447Z,49.03
2022-11-14T23:36:51.698Z,48.08
2022-11-14T23:39:37.337Z,47.47
2022-11-14T23:42:23.366Z,45.72
2022-11-14T23:45:09.406Z,49.35
2022-11-14T23:47:54.852Z,50.05
2022-11-14T23:50:40.395Z,49.92
2022-11-14T23:53:25.955Z,49.67
2022-11-14T23:56:15.151Z,48.90
2022-11-14T23:59:00.259Z,48.13
